This is the latest recevied weather packets stored in our database for station/object HB9HJL-11. If no packets are shown the sender has not sent any weather packets the latest 10 day(s).
| Time | Temp. | Humidity | Pressure | Rain* | Wind** | Luminosity | Snow |
|---|---|---|---|---|---|---|---|
| 1777869199 | 9.44° C | 82% | 949 hPa | - | - | - | - |
| 1777868299 | 8.89° C | 82% | 949 hPa | - | - | - | - |
| 1777867399 | 9.44° C | 81% | 949 hPa | - | - | - | - |
| 1777866499 | 9.44° C | 81% | 949 hPa | - | - | - | - |
| 1777865599 | 8.89° C | 81% | 949 hPa | - | - | - | - |
| 1777864699 | 9.44° C | 80% | 949 hPa | - | - | - | - |
| 1777863799 | 8.89° C | 81% | 949 hPa | - | - | - | - |
| 1777862899 | 9.44° C | 78% | 949 hPa | - | - | - | - |
| 1777861998 | 9.44° C | 79% | 949 hPa | - | - | - | - |
| 1777861098 | 9.44° C | 78% | 949 hPa | - | - | - | - |
| 1777860198 | 9.44° C | 78% | 949 hPa | - | - | - | - |
| 1777859298 | 10° C | 77% | 948 hPa | - | - | - | - |
| 1777858398 | 10.56° C | 76% | 948 hPa | - | - | - | - |
| 1777857498 | 10° C | 78% | 949 hPa | - | - | - | - |
| 1777856598 | 10.56° C | 77% | 949 hPa | - | - | - | - |
| 1777855698 | 10.56° C | 75% | 948 hPa | - | - | - | - |
| 1777854798 | 11.11° C | 76% | 948 hPa | - | - | - | - |
| 1777853898 | 11.67° C | 75% | 948 hPa | - | - | - | - |
| 1777852997 | 12.22° C | 75% | 949 hPa | - | - | - | - |
| 1777852097 | 12.22° C | 74% | 949 hPa | - | - | - | - |
| 1777851197 | 12.22° C | 74% | 949 hPa | - | - | - | - |
| 1777850297 | 12.22° C | 74% | 949 hPa | - | - | - | - |
| 1777849397 | 12.78° C | 71% | 948 hPa | - | - | - | - |
| 1777848497 | 12.22° C | 71% | 948 hPa | - | - | - | - |
| 1777847597 | 12.78° C | 70% | 947 hPa | - | - | - | - |
* Rain since midnight (hover to see other rain measurements)
** Current wind speed in m/s (hover to see current wind gust speed)